createdAt,value
2023-03-15T00:04:34.447Z,9.83
2023-03-15T00:09:40.615Z,9.70
2023-03-15T00:14:46.834Z,6.52
2023-03-15T00:19:53.191Z,8.02
2023-03-15T00:24:59.335Z,6.46
2023-03-15T00:30:05.886Z,7.36
2023-03-15T00:35:11.982Z,5.06
2023-03-15T00:40:18.234Z,7.15
2023-03-15T00:45:24.430Z,5.71
2023-03-15T00:50:30.736Z,6.60
2023-03-15T00:55:36.881Z,7.65
2023-03-15T01:00:43.087Z,5.11
2023-03-15T01:05:49.226Z,7.87
2023-03-15T01:10:55.398Z,5.27
2023-03-15T01:16:01.624Z,6.30
2023-03-15T01:21:07.811Z,5.38
2023-03-15T01:26:13.956Z,4.15
2023-03-15T01:31:20.213Z,5.62
2023-03-15T01:36:26.348Z,5.73
2023-03-15T01:41:32.527Z,4.75
2023-03-15T01:46:38.721Z,5.38
2023-03-15T01:51:44.959Z,5.58
2023-03-15T01:56:51.066Z,6.47
2023-03-15T02:01:57.268Z,6.68
2023-03-15T02:07:03.315Z,4.68
2023-03-15T02:12:09.496Z,7.49
2023-03-15T02:18:19.494Z,6.21
2023-03-15T02:23:25.725Z,4.66
2023-03-15T02:28:31.993Z,4.02
2023-03-15T02:33:38.219Z,5.34
2023-03-15T02:38:44.305Z,7.29
2023-03-15T02:43:50.482Z,6.10
2023-03-15T02:48:56.580Z,10.91
2023-03-15T02:54:02.747Z,5.32
2023-03-15T02:59:08.854Z,6.81
2023-03-15T03:04:15.039Z,7.79
2023-03-15T03:09:21.188Z,8.96
2023-03-15T03:14:27.503Z,7.14
2023-03-15T03:19:33.595Z,6.12
2023-03-15T03:24:39.850Z,5.34
2023-03-15T03:29:45.936Z,6.19
2023-03-15T03:34:52.142Z,9.09
2023-03-15T03:39:58.343Z,5.91
2023-03-15T03:45:04.479Z,4.77
2023-03-15T03:50:10.579Z,4.66
2023-03-15T03:55:16.872Z,5.16
2023-03-15T04:00:23.074Z,5.88
2023-03-15T04:05:29.278Z,6.11
2023-03-15T04:10:35.515Z,4.49
2023-03-15T04:15:41.739Z,4.15
2023-03-15T04:20:47.769Z,4.08
2023-03-15T04:25:54.101Z,4.90
2023-03-15T04:31:00.313Z,5.63
2023-03-15T04:36:06.429Z,8.33
2023-03-15T04:41:12.608Z,9.59
2023-03-15T04:46:18.815Z,4.07
2023-03-15T04:51:24.890Z,4.78
2023-03-15T04:56:31.084Z,8.12
2023-03-15T05:01:37.639Z,5.06
2023-03-15T05:07:20.862Z,7.80
2023-03-15T05:12:27.066Z,5.91
2023-03-15T05:17:33.285Z,6.75
2023-03-15T05:22:39.416Z,7.23
2023-03-15T05:27:45.574Z,5.30
2023-03-15T05:32:51.761Z,5.67
2023-03-15T05:37:58.066Z,5.43
2023-03-15T05:43:04.216Z,4.91
2023-03-15T05:48:10.451Z,4.22
2023-03-15T05:53:16.868Z,5.03
2023-03-15T05:58:23.103Z,5.64
2023-03-15T06:03:29.185Z,2.95
2023-03-15T06:08:35.389Z,3.58
2023-03-15T06:13:41.484Z,5.38
2023-03-15T06:18:47.685Z,6.05
2023-03-15T06:23:53.859Z,5.75
2023-03-15T06:29:00.208Z,5.64
2023-03-15T06:34:06.287Z,6.46
2023-03-15T06:39:12.455Z,5.21
2023-03-15T06:44:18.545Z,5.82
2023-03-15T06:49:24.817Z,4.51
2023-03-15T06:54:30.956Z,6.77
2023-03-15T06:59:37.151Z,6.28
2023-03-15T07:04:43.258Z,7.43
2023-03-15T07:09:49.469Z,6.62
2023-03-15T07:14:55.613Z,4.74
2023-03-15T07:20:01.881Z,8.30
2023-03-15T07:25:07.940Z,6.68
2023-03-15T07:30:14.101Z,7.07
2023-03-15T07:35:20.132Z,7.95
2023-03-15T07:40:26.367Z,8.11
2023-03-15T07:45:32.490Z,4.22
2023-03-15T07:50:38.753Z,6.06
2023-03-15T07:55:44.847Z,6.19
2023-03-15T08:00:51.036Z,4.73
2023-03-15T08:05:57.113Z,6.75
2023-03-15T08:11:03.330Z,4.53
2023-03-15T08:16:09.549Z,5.41
2023-03-15T08:21:15.644Z,7.65
2023-03-15T08:26:21.724Z,6.17
2023-03-15T08:31:28.102Z,8.90
2023-03-15T08:36:34.278Z,6.51
2023-03-15T08:41:40.415Z,6.36
2023-03-15T08:46:46.517Z,7.97
2023-03-15T08:51:52.717Z,7.85
2023-03-15T08:56:59.040Z,6.71
2023-03-15T09:02:05.515Z,7.55
2023-03-15T09:07:11.539Z,5.69
2023-03-15T09:12:17.722Z,5.94
2023-03-15T09:17:23.800Z,6.02
2023-03-15T09:22:39.004Z,8.48
2023-03-15T09:27:35.548Z,5.20
2023-03-15T09:32:42.064Z,7.41
2023-03-15T09:37:48.040Z,9.04
2023-03-15T09:42:54.449Z,9.66
2023-03-15T09:48:00.584Z,1.64
2023-03-15T09:53:06.878Z,1.44
2023-03-15T09:58:12.985Z,1.72
2023-03-15T10:03:19.497Z,2.34
2023-03-15T10:08:25.647Z,2.52
2023-03-15T10:13:32.142Z,2.31
2023-03-15T10:18:38.285Z,2.70
2023-03-15T10:23:44.587Z,10.37
2023-03-15T10:28:52.168Z,4.65
2023-03-15T10:33:56.674Z,3.43
2023-03-15T10:39:02.757Z,2.78
2023-03-15T10:44:08.921Z,5.27
2023-03-15T10:49:15.040Z,3.55
2023-03-15T10:54:21.212Z,3.87
2023-03-15T10:59:27.336Z,3.73
2023-03-15T11:04:34.445Z,3.75
2023-03-15T11:09:39.260Z,2.84
2023-03-15T11:14:46.368Z,4.22
2023-03-15T11:19:52.450Z,2.83
2023-03-15T11:24:58.687Z,3.28
2023-03-15T11:30:04.689Z,2.75
2023-03-15T11:35:10.914Z,2.21
2023-03-15T11:40:17.356Z,3.02
2023-03-15T11:45:23.287Z,2.24
2023-03-15T11:50:29.303Z,2.37
2023-03-15T11:55:35.533Z,2.31
2023-03-15T12:00:41.705Z,1.80
2023-03-15T12:05:47.963Z,3.66
2023-03-15T12:10:54.068Z,4.55
2023-03-15T12:16:00.266Z,2.80
2023-03-15T12:21:07.045Z,4.28
2023-03-15T12:26:13.252Z,4.23
2023-03-15T12:31:19.832Z,4.72
2023-03-15T12:36:25.963Z,3.47
2023-03-15T12:41:32.057Z,3.96
2023-03-15T12:46:38.445Z,3.37
2023-03-15T12:51:44.537Z,3.72
2023-03-15T12:56:50.787Z,4.78
2023-03-15T13:01:56.866Z,4.97
2023-03-15T13:07:03.046Z,4.27
2023-03-15T13:12:09.104Z,3.24
2023-03-15T13:17:15.473Z,4.11
2023-03-15T13:22:21.848Z,4.95
2023-03-15T13:27:28.087Z,4.42
2023-03-15T13:32:34.219Z,2.94
2023-03-15T13:37:40.407Z,5.72
2023-03-15T13:42:46.536Z,5.26
2023-03-15T13:47:52.918Z,4.23
2023-03-15T13:53:56.266Z,3.99
2023-03-15T13:59:02.604Z,4.53
2023-03-15T14:04:08.720Z,4.76
2023-03-15T14:09:14.940Z,3.48
2023-03-15T14:14:21.012Z,4.16
2023-03-15T14:19:27.148Z,6.78
2023-03-15T14:24:33.286Z,4.99
2023-03-15T14:29:39.526Z,6.53
2023-03-15T14:34:45.614Z,4.69
2023-03-15T14:39:51.849Z,4.75
2023-03-15T14:44:57.955Z,8.03
2023-03-15T14:50:04.280Z,4.81
2023-03-15T14:55:10.355Z,8.60
2023-03-15T15:00:16.578Z,7.95
2023-03-15T15:05:22.659Z,4.02
2023-03-15T15:10:28.791Z,6.46
2023-03-15T15:15:43.955Z,4.51
2023-03-15T15:20:40.896Z,4.51
2023-03-15T15:25:47.080Z,4.31
2023-03-15T15:30:53.613Z,4.88
2023-03-15T15:35:59.733Z,5.62
2023-03-15T15:41:05.851Z,4.61
2023-03-15T15:46:11.922Z,3.81
2023-03-15T15:51:18.112Z,5.63
2023-03-15T15:56:24.207Z,4.15
2023-03-15T16:01:30.417Z,6.56
2023-03-15T16:06:36.474Z,6.87
2023-03-15T16:11:42.779Z,7.56
2023-03-15T16:16:53.577Z,4.82
2023-03-15T16:21:49.828Z,6.45
2023-03-15T16:26:55.908Z,5.85
2023-03-15T16:32:16.536Z,4.66
2023-03-15T16:37:07.693Z,5.18
2023-03-15T16:42:13.922Z,4.71
2023-03-15T16:47:20.047Z,8.52
2023-03-15T16:52:26.334Z,3.81
2023-03-15T16:57:32.412Z,6.21
2023-03-15T17:02:38.628Z,4.65
2023-03-15T17:07:56.698Z,4.86
2023-03-15T17:13:03.031Z,5.57
2023-03-15T17:18:09.097Z,5.17
2023-03-15T17:23:15.362Z,5.89
2023-03-15T17:28:21.469Z,6.12
2023-03-15T17:33:27.802Z,6.75
2023-03-15T17:38:33.925Z,9.57
2023-03-15T17:43:40.285Z,10.38
2023-03-15T17:48:46.480Z,8.05
2023-03-15T17:53:52.621Z,6.27
2023-03-15T17:58:58.749Z,6.36
2023-03-15T18:04:05.041Z,5.57
2023-03-15T18:09:11.039Z,6.81
2023-03-15T18:14:17.228Z,5.39
2023-03-15T18:19:23.310Z,4.41
2023-03-15T18:24:29.561Z,7.41
2023-03-15T18:29:35.692Z,7.84
2023-03-15T18:34:41.885Z,5.17
2023-03-15T18:39:48.323Z,5.33
2023-03-15T18:44:54.500Z,5.16
2023-03-15T18:50:09.573Z,6.91
2023-03-15T18:55:06.338Z,6.64
2023-03-15T19:00:12.426Z,6.71
2023-03-15T19:05:18.625Z,5.75
2023-03-15T19:10:24.729Z,9.44
2023-03-15T19:15:31.047Z,11.15
2023-03-15T19:20:37.147Z,10.34
2023-03-15T19:25:43.361Z,14.28
2023-03-15T19:30:49.513Z,14.17
2023-03-15T19:35:55.905Z,21.61
2023-03-15T19:41:02.246Z,22.44
2023-03-15T19:46:08.933Z,19.74
2023-03-15T19:51:14.973Z,12.24
2023-03-15T19:56:21.642Z,11.21
2023-03-15T20:01:28.557Z,12.05
2023-03-15T20:06:34.698Z,11.37
2023-03-15T20:11:40.779Z,13.32
2023-03-15T20:16:47.129Z,15.87
2023-03-15T20:21:53.344Z,14.98
2023-03-15T20:26:59.637Z,15.26
2023-03-15T20:32:05.860Z,19.94
2023-03-15T20:37:12.107Z,18.11
2023-03-15T20:42:18.195Z,16.93
2023-03-15T20:47:24.750Z,17.87
2023-03-15T20:52:30.911Z,20.11
2023-03-15T20:57:37.125Z,17.06
2023-03-15T21:02:43.313Z,19.22
2023-03-15T21:07:49.562Z,18.41
2023-03-15T21:12:55.745Z,19.99
2023-03-15T21:18:02.026Z,16.61
2023-03-15T21:23:08.175Z,18.27
2023-03-15T21:28:14.341Z,18.83
2023-03-15T21:33:21.291Z,20.82
2023-03-15T21:38:27.538Z,17.15
2023-03-15T21:43:33.667Z,16.74
2023-03-15T21:48:39.930Z,16.95
2023-03-15T21:53:46.102Z,17.49
2023-03-15T21:58:52.383Z,15.59
2023-03-15T22:03:58.466Z,17.52
2023-03-15T22:09:04.687Z,18.41
2023-03-15T22:14:10.926Z,17.43
2023-03-15T22:19:17.183Z,14.82
2023-03-15T22:24:23.381Z,15.57
2023-03-15T22:29:29.657Z,13.10
2023-03-15T22:34:35.766Z,13.30
2023-03-15T22:39:42.080Z,9.49
2023-03-15T22:44:48.256Z,9.93
2023-03-15T22:49:54.516Z,9.22
2023-03-15T22:55:00.748Z,8.47
2023-03-15T23:00:06.935Z,8.47
2023-03-15T23:05:13.337Z,10.76
2023-03-15T23:10:19.592Z,11.22
2023-03-15T23:15:25.848Z,9.22
2023-03-15T23:20:32.042Z,8.43
2023-03-15T23:25:38.098Z,8.35
2023-03-15T23:30:44.527Z,10.85
2023-03-15T23:35:50.719Z,10.06
2023-03-15T23:40:56.898Z,9.24
2023-03-15T23:46:02.971Z,7.19
2023-03-15T23:51:09.164Z,8.39
2023-03-15T23:56:15.348Z,8.08
